Time;durP1;ratioP1;P1;durP2;ratioP2;P2;SDS_P1;SDS_P2;PMS_P1;PMS_P2;Temp;Humidity;BMP_temperature;BMP_pressure;BME280_temperature;BME280_humidity;BME280_pressure;Samples;Min_cycle;Max_cycle;Signal;HPM_P1;HPM_P2
2022/08/04 00:00:18;;;;;;;9.52;4.05;;;;;;;;;;4990498;28;20034;-64
2022/08/04 00:03:03;;;;;;;10.23;4.10;;;;;;;;;;4990855;28;20077;-64
2022/08/04 00:05:32;;;;;;;9.98;3.88;;;;;;;;;;4991066;28;20039;-64
2022/08/04 00:08:01;;;;;;;4.68;3.00;;;;;;;;;;4973289;28;20050;-64
2022/08/04 00:10:27;;;;;;;10.35;3.78;;;;;;;;;;4991226;28;20129;-64
2022/08/04 00:12:56;;;;;;;12.32;3.92;;;;;;;;;;4991122;28;20452;-64
2022/08/04 00:15:23;;;;;;;7.35;3.30;;;;;;;;;;4990853;28;20042;-64
2022/08/04 00:18:10;;;;;;;9.60;3.70;;;;;;;;;;4973763;28;20050;-64
2022/08/04 00:20:39;;;;;;;7.53;3.72;;;;;;;;;;4990637;28;20473;-64
2022/08/04 00:23:06;;;;;;;11.32;4.18;;;;;;;;;;4990829;28;20042;-64
2022/08/04 00:25:32;;;;;;;9.32;3.60;;;;;;;;;;4990999;28;20517;-64
2022/08/04 00:28:00;;;;;;;7.22;3.83;;;;;;;;;;4990792;28;20073;-64
2022/08/04 00:30:26;;;;;;;10.25;4.03;;;;;;;;;;4990408;28;20046;-64
2022/08/04 00:32:52;;;;;;;9.80;3.65;;;;;;;;;;4990932;28;20045;-64
2022/08/04 00:35:18;;;;;;;9.60;4.00;;;;;;;;;;4991069;28;20042;-64
2022/08/04 00:37:45;;;;;;;10.35;4.38;;;;;;;;;;4990547;28;20413;-64
2022/08/04 00:40:11;;;;;;;10.50;3.97;;;;;;;;;;4990810;28;20050;-64
2022/08/04 00:42:43;;;;;;;7.97;3.80;;;;;;;;;;4990589;28;20042;-64
2022/08/04 00:45:42;;;;;;;9.73;4.35;;;;;;;;;;4990245;28;20126;-64
2022/08/04 00:48:21;;;;;;;9.15;4.00;;;;;;;;;;4938257;28;20112;-64
2022/08/04 00:51:11;;;;;;;7.32;3.70;;;;;;;;;;4971148;28;20038;-64
2022/08/04 00:53:39;;;;;;;8.65;4.28;;;;;;;;;;4943251;28;20122;-64
2022/08/04 00:56:12;;;;;;;10.98;4.65;;;;;;;;;;4974800;28;20129;-64
2022/08/04 00:58:47;;;;;;;9.50;4.70;;;;;;;;;;4974487;28;20078;-64
2022/08/04 01:01:32;;;;;;;9.57;4.20;;;;;;;;;;4974492;28;20070;-64
2022/08/04 01:04:10;;;;;;;9.23;4.43;;;;;;;;;;4974848;28;20049;-64
2022/08/04 01:06:36;;;;;;;9.43;4.50;;;;;;;;;;4973981;28;20039;-64
2022/08/04 01:09:08;;;;;;;7.07;3.90;;;;;;;;;;4974826;28;20363;-64
2022/08/04 01:11:34;;;;;;;;;;;;;;;;;;4957624;28;20070;-64
2022/08/04 01:14:00;;;;;;;8.88;4.88;;;;;;;;;;4974220;28;20012;-64
2022/08/04 01:16:26;;;;;;;8.18;4.18;;;;;;;;;;4974678;28;20050;-64
2022/08/04 01:19:00;;;;;;;9.18;4.63;;;;;;;;;;4957233;28;20046;-64
2022/08/04 01:21:29;;;;;;;10.65;4.68;;;;;;;;;;4974109;28;20149;-64
2022/08/04 01:24:10;;;;;;;9.68;4.63;;;;;;;;;;4957111;28;20046;-64
2022/08/04 01:26:55;;;;;;;11.93;4.60;;;;;;;;;;4974274;28;20049;-64
2022/08/04 01:29:22;;;;;;;9.38;4.18;;;;;;;;;;4973838;28;20042;-64
2022/08/04 01:32:08;;;;;;;10.75;4.47;;;;;;;;;;4974017;28;20046;-64
2022/08/04 01:34:36;;;;;;;7.95;4.25;;;;;;;;;;4974410;28;20042;-64
2022/08/04 01:37:05;;;;;;;10.48;4.57;;;;;;;;;;4973996;28;20085;-64
2022/08/04 01:39:42;;;;;;;10.68;4.68;;;;;;;;;;4974161;28;20094;-64
2022/08/04 01:42:11;;;;;;;7.45;4.40;;;;;;;;;;4974046;28;20112;-64
2022/08/04 01:44:38;;;;;;;13.27;5.10;;;;;;;;;;4973725;28;20423;-64
2022/08/04 01:47:05;;;;;;;10.05;4.70;;;;;;;;;;4977910;28;20061;-64
2022/08/04 01:49:32;;;;;;;14.05;5.20;;;;;;;;;;4993091;28;20096;-64
2022/08/04 01:51:58;;;;;;;8.95;4.65;;;;;;;;;;4992967;28;20053;-64
2022/08/04 01:54:25;;;;;;;14.95;4.75;;;;;;;;;;4993411;28;20050;-64
2022/08/04 01:56:52;;;;;;;9.55;4.50;;;;;;;;;;4975893;28;20066;-64
2022/08/04 01:59:20;;;;;;;9.45;4.95;;;;;;;;;;4992745;28;20049;-64
2022/08/04 02:01:46;;;;;;;9.48;4.55;;;;;;;;;;4993415;28;20042;-64
2022/08/04 02:04:17;;;;;;;7.43;5.20;;;;;;;;;;4993134;28;20046;-64
2022/08/04 02:06:46;;;;;;;11.90;4.65;;;;;;;;;;4991965;28;20073;-64
2022/08/04 02:09:20;;;;;;;10.30;4.90;;;;;;;;;;4993112;28;20129;-64
2022/08/04 02:11:52;;;;;;;8.77;4.53;;;;;;;;;;4993115;28;20049;-64
2022/08/04 02:14:44;;;;;;;7.47;4.70;;;;;;;;;;4992568;28;20038;-64
2022/08/04 02:17:11;;;;;;;9.43;4.70;;;;;;;;;;4975591;28;20050;-64
2022/08/04 02:19:45;;;;;;;16.73;5.30;;;;;;;;;;4992456;28;20057;-64
2022/08/04 02:22:16;;;;;;;12.30;5.75;;;;;;;;;;4992952;28;20058;-64
2022/08/04 02:24:45;;;;;;;12.70;5.60;;;;;;;;;;4992862;28;20365;-64
2022/08/04 02:27:13;;;;;;;12.68;5.43;;;;;;;;;;4992288;28;20205;-64
2022/08/04 02:29:42;;;;;;;10.02;5.63;;;;;;;;;;4992515;28;20624;-64
2022/08/04 02:32:38;;;;;;;13.77;5.68;;;;;;;;;;4992496;28;20042;-64
2022/08/04 02:35:07;;;;;;;10.77;5.20;;;;;;;;;;4973032;28;20121;-64
2022/08/04 02:37:34;;;;;;;11.55;5.75;;;;;;;;;;4975100;28;20080;-64
2022/08/04 02:40:05;;;;;;;9.10;5.30;;;;;;;;;;4992152;28;20038;-64
2022/08/04 02:42:32;;;;;;;9.27;5.88;;;;;;;;;;4992194;28;20044;-64
2022/08/04 02:44:59;;;;;;;7.63;5.70;;;;;;;;;;4992454;28;20046;-64
2022/08/04 02:47:26;;;;;;;12.90;5.38;;;;;;;;;;4991844;28;20144;-64
2022/08/04 02:49:52;;;;;;;12.25;5.97;;;;;;;;;;4992025;28;20047;-64
2022/08/04 02:52:19;;;;;;;11.00;6.55;;;;;;;;;;4992395;28;20035;-64
2022/08/04 02:54:47;;;;;;;14.02;6.32;;;;;;;;;;4992459;28;20458;-64
2022/08/04 02:57:13;;;;;;;11.75;6.20;;;;;;;;;;4991798;28;20049;-64
2022/08/04 03:00:07;;;;;;;13.10;5.95;;;;;;;;;;4991915;28;20180;-64
2022/08/04 03:02:54;;;;;;;11.98;6.15;;;;;;;;;;4988982;28;20086;-64
2022/08/04 03:05:25;;;;;;;10.60;6.35;;;;;;;;;;4991749;28;20361;-64
2022/08/04 03:07:52;;;;;;;11.48;6.20;;;;;;;;;;4991901;28;20489;-64
2022/08/04 03:10:21;;;;;;;9.80;5.90;;;;;;;;;;4992086;28;20061;-64
2022/08/04 03:12:47;;;;;;;11.35;6.28;;;;;;;;;;4991656;28;20433;-64
2022/08/04 03:15:29;;;;;;;13.88;6.30;;;;;;;;;;4992043;28;20034;-64
2022/08/04 03:18:24;;;;;;;14.40;7.05;;;;;;;;;;4990629;28;20065;-64
2022/08/04 03:21:09;;;;;;;14.05;5.88;;;;;;;;;;4974380;28;20134;-64
2022/08/04 03:23:35;;;;;;;14.05;6.93;;;;;;;;;;4991774;28;20046;-64
2022/08/04 03:26:16;;;;;;;15.18;6.75;;;;;;;;;;4991316;28;20046;-64
2022/08/04 03:29:00;;;;;;;10.55;6.13;;;;;;;;;;4991703;28;20062;-64
2022/08/04 03:31:38;;;;;;;15.73;6.90;;;;;;;;;;4991830;28;20096;-64
2022/08/04 03:34:28;;;;;;;12.63;6.80;;;;;;;;;;4991157;28;20042;-64
2022/08/04 03:37:04;;;;;;;18.55;6.95;;;;;;;;;;4938148;28;20053;-64
2022/08/04 03:39:42;;;;;;;12.45;6.53;;;;;;;;;;4991383;28;20034;-64
2022/08/04 03:42:26;;;;;;;11.77;7.28;;;;;;;;;;4990999;28;20053;-64
2022/08/04 03:45:23;;;;;;;15.70;6.90;;;;;;;;;;4991531;28;20042;-64
2022/08/04 03:48:08;;;;;;;13.77;6.47;;;;;;;;;;4991005;28;20145;-64
2022/08/04 03:54:20;;;;;;;12.43;6.55;;;;;;;;;;4958241;28;20054;-64
2022/08/04 03:57:09;;;;;;;9.45;6.18;;;;;;;;;;4973647;28;20123;-64
2022/08/04 03:59:54;;;;;;;11.02;6.55;;;;;;;;;;4954574;28;20054;-64
2022/08/04 04:02:26;;;;;;;13.00;7.00;;;;;;;;;;4973510;28;20101;-64
2022/08/04 04:05:11;;;;;;;12.50;6.97;;;;;;;;;;4990962;28;20106;-64
2022/08/04 04:07:46;;;;;;;15.20;6.35;;;;;;;;;;4991141;28;20038;-64
2022/08/04 04:10:12;;;;;;;12.77;7.10;;;;;;;;;;4991175;28;20046;-64
2022/08/04 04:12:44;;;;;;;14.63;6.60;;;;;;;;;;4990734;28;20049;-64
2022/08/04 04:15:10;;;;;;;;;;;;;;;;;;4991566;28;20038;-64
2022/08/04 04:17:52;;;;;;;12.90;7.70;;;;;;;;;;4990969;28;19921;-64
2022/08/04 04:20:25;;;;;;;14.48;6.88;;;;;;;;;;4991259;28;20566;-64
2022/08/04 04:22:54;;;;;;;18.98;6.93;;;;;;;;;;4973792;28;20408;-64
2022/08/04 04:25:44;;;;;;;14.43;7.00;;;;;;;;;;4990768;28;20177;-64
2022/08/04 04:28:10;;;;;;;18.75;7.03;;;;;;;;;;4991034;28;20134;-64
2022/08/04 04:30:45;;;;;;;12.55;7.97;;;;;;;;;;4993802;28;20129;-64
2022/08/04 04:33:32;;;;;;;12.02;6.72;;;;;;;;;;4976955;28;20057;-64
2022/08/04 04:36:01;;;;;;;10.98;6.88;;;;;;;;;;4994731;28;20043;-64
2022/08/04 04:38:45;;;;;;;12.20;6.95;;;;;;;;;;4994563;28;20053;-64
2022/08/04 04:41:21;;;;;;;14.45;8.73;;;;;;;;;;4994304;28;20042;-64
2022/08/04 04:44:23;;;;;;;16.38;7.72;;;;;;;;;;4961291;28;20087;-64
2022/08/04 04:46:52;;;;;;;16.05;7.35;;;;;;;;;;4898768;29;20051;-64
2022/08/04 04:49:18;;;;;;;19.55;7.13;;;;;;;;;;4963720;28;20081;-64
2022/08/04 04:51:53;;;;;;;15.00;8.35;;;;;;;;;;4974960;28;20118;-64
2022/08/04 04:54:19;;;;;;;16.83;6.45;;;;;;;;;;4975122;28;20521;-64
2022/08/04 04:56:53;;;;;;;18.23;6.63;;;;;;;;;;4957199;28;20046;-64
2022/08/04 04:59:21;;;;;;;17.00;7.13;;;;;;;;;;4974946;28;20090;-64
2022/08/04 05:02:01;;;;;;;15.57;6.97;;;;;;;;;;4974989;28;20462;-64
2022/08/04 05:04:36;;;;;;;11.82;6.72;;;;;;;;;;4957007;28;20129;-64
2022/08/04 05:07:11;;;;;;;15.88;7.88;;;;;;;;;;4974635;28;20035;-64
2022/08/04 05:09:56;;;;;;;9.50;6.43;;;;;;;;;;4956890;28;20046;-64
2022/08/04 05:12:31;;;;;;;13.27;7.40;;;;;;;;;;4974598;28;20045;-64
2022/08/04 05:14:57;;;;;;;27.67;8.18;;;;;;;;;;4974719;28;20049;-64
2022/08/04 05:17:23;;;;;;;17.45;8.88;;;;;;;;;;4974120;28;20085;-64
2022/08/04 05:19:53;;;;;;;19.88;7.53;;;;;;;;;;4956896;28;20490;-64
2022/08/04 05:22:24;;;;;;;19.17;7.43;;;;;;;;;;4974430;28;20078;-64
2022/08/04 05:24:54;;;;;;;13.50;7.40;;;;;;;;;;4956330;28;20078;-64
2022/08/04 05:27:25;;;;;;;17.50;7.82;;;;;;;;;;4974218;28;20043;-64
2022/08/04 05:29:54;;;;;;;14.85;8.02;;;;;;;;;;4974347;28;20042;-64
2022/08/04 05:32:36;;;;;;;10.23;6.82;;;;;;;;;;4973695;28;20126;-64
2022/08/04 05:35:03;;;;;;;16.80;7.78;;;;;;;;;;4973964;28;20090;-64
2022/08/04 05:37:31;;;;;;;18.92;7.85;;;;;;;;;;4974118;28;20394;-64
2022/08/04 05:40:01;;;;;;;13.20;7.80;;;;;;;;;;4973541;28;20050;-64
2022/08/04 05:42:28;;;;;;;14.85;7.68;;;;;;;;;;4955426;28;20125;-64
2022/08/04 05:44:55;;;;;;;14.68;8.43;;;;;;;;;;4974101;28;20102;-64
2022/08/04 05:47:21;;;;;;;12.23;7.28;;;;;;;;;;4962221;28;20054;-64
2022/08/04 05:49:47;;;;;;;10.10;7.53;;;;;;;;;;4992991;28;20559;-64
2022/08/04 05:52:14;;;;;;;15.75;7.72;;;;;;;;;;4993151;28;20404;-62
2022/08/04 05:54:40;;;;;;;15.40;7.60;;;;;;;;;;5000404;28;20034;-61
2022/08/04 05:57:07;;;;;;;16.08;7.32;;;;;;;;;;4991788;28;20042;-61
2022/08/04 05:59:35;;;;;;;14.48;8.07;;;;;;;;;;4992863;28;20065;-62
2022/08/04 06:02:02;;;;;;;13.85;8.32;;;;;;;;;;4992358;28;20046;-62
2022/08/04 06:04:32;;;;;;;18.58;8.52;;;;;;;;;;4992801;28;20401;-62
2022/08/04 06:06:58;;;;;;;16.77;8.55;;;;;;;;;;4992635;28;20080;-62
2022/08/04 06:09:24;;;;;;;14.40;7.72;;;;;;;;;;4991998;28;20101;-62
2022/08/04 06:11:51;;;;;;;14.40;8.93;;;;;;;;;;4992405;28;20485;-63
2022/08/04 06:14:17;;;;;;;14.50;8.50;;;;;;;;;;4991279;28;20413;-63
2022/08/04 06:16:44;;;;;;;14.95;8.77;;;;;;;;;;4990963;28;20045;-61
2022/08/04 06:19:14;;;;;;;15.15;8.30;;;;;;;;;;4992109;28;20038;-63
2022/08/04 06:21:43;;;;;;;14.48;8.02;;;;;;;;;;4974597;28;20046;-62
2022/08/04 06:24:11;;;;;;;13.77;8.30;;;;;;;;;;4991880;28;20042;-63
2022/08/04 06:26:39;;;;;;;16.02;8.27;;;;;;;;;;4991958;28;20120;-63
2022/08/04 06:29:10;;;;;;;18.90;7.35;;;;;;;;;;4992145;28;20457;-63
2022/08/04 06:31:44;;;;;;;14.57;7.78;;;;;;;;;;4973887;28;20145;-63
2022/08/04 06:34:12;;;;;;;11.45;7.10;;;;;;;;;;4991151;28;20054;-61
2022/08/04 06:36:39;;;;;;;15.90;7.40;;;;;;;;;;4991913;28;20145;-62
2022/08/04 06:39:06;;;;;;;12.63;7.28;;;;;;;;;;4990798;28;20049;-62
2022/08/04 06:41:33;;;;;;;17.38;7.47;;;;;;;;;;4991714;28;20053;-62
2022/08/04 06:44:01;;;;;;;12.18;6.32;;;;;;;;;;4991530;28;20367;-61
2022/08/04 06:46:27;;;;;;;17.00;6.15;;;;;;;;;;4990916;28;20061;-62
2022/08/04 06:48:54;;;;;;;15.43;6.43;;;;;;;;;;4991386;28;20130;-62
2022/08/04 06:51:21;;;;;;;13.90;5.57;;;;;;;;;;4991563;28;20054;-63
2022/08/04 06:53:47;;;;;;;10.52;5.60;;;;;;;;;;4990664;28;20129;-63
2022/08/04 06:56:17;;;;;;;10.57;5.15;;;;;;;;;;4991162;28;20049;-63
2022/08/04 06:58:45;;;;;;;10.98;5.55;;;;;;;;;;4973907;28;20057;-64
2022/08/04 07:01:12;;;;;;;9.23;5.30;;;;;;;;;;4990945;28;20489;-64
2022/08/04 07:03:38;;;;;;;14.43;5.13;;;;;;;;;;4990879;28;20132;-64
2022/08/04 07:06:05;;;;;;;10.23;4.88;;;;;;;;;;4991862;28;20075;-63
2022/08/04 07:08:31;;;;;;;12.88;4.70;;;;;;;;;;4990542;28;20046;-64
2022/08/04 07:10:58;;;;;;;9.82;4.28;;;;;;;;;;4990896;28;20081;-63
2022/08/04 07:13:26;;;;;;;8.82;4.05;;;;;;;;;;4991056;28;20050;-61
2022/08/04 07:15:52;;;;;;;13.70;4.07;;;;;;;;;;4990214;28;20070;-63
2022/08/04 07:18:18;;;;;;;12.35;3.60;;;;;;;;;;4991250;28;20398;-63
2022/08/04 07:20:45;;;;;;;8.90;3.63;;;;;;;;;;4991211;28;20413;-63
2022/08/04 07:23:18;;;;;;;11.10;3.33;;;;;;;;;;4990637;28;20461;-62
2022/08/04 07:25:50;;;;;;;8.57;3.67;;;;;;;;;;4991225;28;20064;-64
2022/08/04 07:28:16;;;;;;;8.18;3.03;;;;;;;;;;5001712;28;20072;-63
2022/08/04 07:30:43;;;;;;;8.18;2.90;;;;;;;;;;4990951;28;20126;-64
2022/08/04 07:33:10;;;;;;;10.68;3.92;;;;;;;;;;4990627;28;20392;-63
2022/08/04 07:35:37;;;;;;;10.00;3.35;;;;;;;;;;4991045;28;20064;-64
2022/08/04 07:38:03;;;;;;;8.63;3.60;;;;;;;;;;4990386;28;20034;-64
2022/08/04 07:40:29;;;;;;;7.30;3.28;;;;;;;;;;4990581;28;20579;-65
2022/08/04 07:42:56;;;;;;;9.90;3.00;;;;;;;;;;4990659;28;20101;-64
2022/08/04 07:45:23;;;;;;;9.65;3.25;;;;;;;;;;4990303;28;20477;-64
2022/08/04 07:47:49;;;;;;;15.63;3.80;;;;;;;;;;4991026;28;20161;-63
2022/08/04 07:50:16;;;;;;;8.02;3.30;;;;;;;;;;4991164;28;20038;-62
2022/08/04 07:52:43;;;;;;;11.27;3.08;;;;;;;;;;4990057;28;20054;-64
2022/08/04 07:55:09;;;;;;;7.57;2.67;;;;;;;;;;4990562;28;20042;-63
2022/08/04 07:57:36;;;;;;;8.35;2.80;;;;;;;;;;4972919;28;20042;-63
2022/08/04 08:00:04;;;;;;;10.88;3.42;;;;;;;;;;4990339;28;20034;-64
2022/08/04 08:02:30;;;;;;;10.25;3.05;;;;;;;;;;4990715;28;20495;-64
2022/08/04 08:04:56;;;;;;;4.47;2.95;;;;;;;;;;4992500;28;20112;-63
2022/08/04 08:07:22;;;;;;;11.25;2.97;;;;;;;;;;4994283;28;20070;-62
2022/08/04 08:09:49;;;;;;;11.05;2.92;;;;;;;;;;4994703;28;20097;-64
2022/08/04 08:12:15;;;;;;;11.32;2.60;;;;;;;;;;4994428;28;20849;-63
2022/08/04 08:14:42;;;;;;;9.23;2.90;;;;;;;;;;4994275;28;20535;-64
2022/08/04 08:17:08;;;;;;;8.40;2.88;;;;;;;;;;4993873;28;20077;-63
2022/08/04 08:19:35;;;;;;;8.50;2.90;;;;;;;;;;4994437;28;20039;-63
2022/08/04 08:22:01;;;;;;;7.50;2.63;;;;;;;;;;4994158;28;20218;-63
2022/08/04 08:24:28;;;;;;;8.48;2.85;;;;;;;;;;4994117;28;20054;-63
2022/08/04 08:26:55;;;;;;;8.65;3.17;;;;;;;;;;4994262;28;20091;-64
2022/08/04 08:29:22;;;;;;;10.45;2.63;;;;;;;;;;4994104;28;20046;-64
2022/08/04 08:31:48;;;;;;;8.48;3.10;;;;;;;;;;4993929;28;20441;-63
2022/08/04 08:34:14;;;;;;;9.60;3.33;;;;;;;;;;4994123;28;20184;-63
2022/08/04 08:36:45;;;;;;;11.57;3.03;;;;;;;;;;4994055;28;20116;-63
2022/08/04 08:39:32;;;;;;;12.73;3.40;;;;;;;;;;4993990;28;20047;-64
2022/08/04 08:42:17;;;;;;;13.77;3.10;;;;;;;;;;4993686;28;20373;-63
2022/08/04 08:44:51;;;;;;;12.85;3.80;;;;;;;;;;4993567;28;20113;-63
2022/08/04 08:47:36;;;;;;;11.55;3.25;;;;;;;;;;4993541;28;20085;-65
2022/08/04 08:50:11;;;;;;;5.43;3.05;;;;;;;;;;4993981;28;20105;-65
2022/08/04 08:52:48;;;;;;;8.68;3.47;;;;;;;;;;4993304;28;20042;-65
2022/08/04 08:55:34;;;;;;;6.60;3.20;;;;;;;;;;4993259;28;20377;-64
2022/08/04 08:58:19;;;;;;;10.32;3.60;;;;;;;;;;4993501;28;20070;-63
2022/08/04 09:00:50;;;;;;;16.05;4.43;;;;;;;;;;4993082;28;20038;-62
2022/08/04 09:03:35;;;;;;;17.77;5.13;;;;;;;;;;4993539;28;20089;-63
2022/08/04 09:06:13;;;;;;;7.97;3.90;;;;;;;;;;4993517;28;20053;-61
2022/08/04 09:08:54;;;;;;;12.80;4.07;;;;;;;;;;4993169;28;20034;-61
2022/08/04 09:11:25;;;;;;;17.63;4.22;;;;;;;;;;4993646;28;20038;-61
2022/08/04 09:13:56;;;;;;;12.48;4.18;;;;;;;;;;4993063;28;20520;-62
2022/08/04 09:16:30;;;;;;;8.43;4.40;;;;;;;;;;4993001;28;20077;-62
2022/08/04 09:19:04;;;;;;;13.82;4.47;;;;;;;;;;4993229;28;20038;-62
2022/08/04 09:21:37;;;;;;;11.35;3.78;;;;;;;;;;4992651;28;20054;-62
2022/08/04 09:24:15;;;;;;;13.55;4.50;;;;;;;;;;5004235;28;20044;-63
2022/08/04 09:26:56;;;;;;;7.72;3.33;;;;;;;;;;4987657;28;20046;-63
2022/08/04 09:29:22;;;;;;;9.00;3.50;;;;;;;;;;4984732;28;20108;-63
2022/08/04 09:31:54;;;;;;;13.35;4.72;;;;;;;;;;4992644;28;20288;-63
2022/08/04 09:34:27;;;;;;;8.82;3.72;;;;;;;;;;4993165;28;20121;-61
2022/08/04 09:36:56;;;;;;;9.90;3.97;;;;;;;;;;4992562;28;20481;-62
2022/08/04 09:39:34;;;;;;;8.68;4.10;;;;;;;;;;4992814;28;20084;-62
2022/08/04 09:42:11;;;;;;;10.77;4.07;;;;;;;;;;4993227;28;20041;-62
2022/08/04 09:44:48;;;;;;;9.20;3.45;;;;;;;;;;4992569;28;20508;-61
2022/08/04 09:47:18;;;;;;;12.73;3.80;;;;;;;;;;4992585;28;20058;-60
2022/08/04 09:50:03;;;;;;;9.38;3.80;;;;;;;;;;4992719;28;20069;-61
2022/08/04 09:52:29;;;;;;;8.75;3.92;;;;;;;;;;4992274;28;20393;-60
2022/08/04 09:54:58;;;;;;;8.00;3.40;;;;;;;;;;4991906;28;20035;-60
2022/08/04 09:57:30;;;;;;;8.32;3.60;;;;;;;;;;4992766;28;20043;-62
2022/08/04 09:59:59;;;;;;;6.75;3.33;;;;;;;;;;4992196;28;20135;-61
2022/08/04 10:02:26;;;;;;;6.20;3.45;;;;;;;;;;4992476;28;20143;-61
2022/08/04 10:04:54;;;;;;;6.82;3.60;;;;;;;;;;4992315;28;20038;-62
2022/08/04 10:07:41;;;;;;;13.23;4.00;;;;;;;;;;4991984;28;20046;-62
2022/08/04 10:10:07;;;;;;;5.60;2.60;;;;;;;;;;4992798;28;20434;-62
2022/08/04 10:12:51;;;;;;;7.07;2.97;;;;;;;;;;4992602;28;20125;-62
2022/08/04 10:15:23;;;;;;;8.38;2.83;;;;;;;;;;4991903;28;20108;-62
2022/08/04 10:17:59;;;;;;;6.25;2.60;;;;;;;;;;4992283;28;20038;-62
2022/08/04 10:20:34;;;;;;;8.15;2.20;;;;;;;;;;4974220;28;20088;-64
2022/08/04 10:23:01;;;;;;;8.45;2.90;;;;;;;;;;4992850;28;20074;-63
2022/08/04 10:25:45;;;;;;;7.82;2.40;;;;;;;;;;5002397;28;20170;-62
2022/08/04 10:28:12;;;;;;;8.50;2.67;;;;;;;;;;4991200;28;20053;-63
2022/08/04 10:30:40;;;;;;;8.57;2.38;;;;;;;;;;4991942;28;20041;-62
2022/08/04 10:33:17;;;;;;;9.38;2.20;;;;;;;;;;4991762;28;20061;-62
2022/08/04 10:35:45;;;;;;;6.63;2.17;;;;;;;;;;4991633;28;20113;-62
2022/08/04 10:38:41;;;;;;;6.25;1.67;;;;;;;;;;4992734;28;20044;-62
2022/08/04 10:41:33;;;;;;;7.13;1.70;;;;;;;;;;4985532;28;20050;-62
2022/08/04 10:44:02;;;;;;;6.88;1.83;;;;;;;;;;4959623;28;20085;-62
2022/08/04 10:46:36;;;;;;;5.20;1.85;;;;;;;;;;4974050;28;20073;-62
2022/08/04 10:49:04;;;;;;;11.57;2.17;;;;;;;;;;4983253;28;20540;-64
2022/08/04 10:51:30;;;;;;;8.82;2.28;;;;;;;;;;4975379;28;20038;-64
2022/08/04 10:54:01;;;;;;;4.00;1.92;;;;;;;;;;4991667;28;20801;-64
2022/08/04 10:56:34;;;;;;;9.20;2.67;;;;;;;;;;4991235;28;20061;-64
2022/08/04 10:59:02;;;;;;;5.25;2.40;;;;;;;;;;4991293;28;20177;-64
2022/08/04 11:01:48;;;;;;;3.92;2.00;;;;;;;;;;4991146;28;20077;-65
2022/08/04 11:04:43;;;;;;;7.15;2.00;;;;;;;;;;4991501;28;20485;-64
2022/08/04 11:07:10;;;;;;;7.13;1.92;;;;;;;;;;4990833;28;20129;-64
2022/08/04 11:09:36;;;;;;;4.63;1.45;;;;;;;;;;4991136;28;20061;-63
2022/08/04 11:12:14;;;;;;;9.00;2.13;;;;;;;;;;4991420;28;20057;-61
2022/08/04 11:14:50;;;;;;;4.32;1.65;;;;;;;;;;4991441;28;20046;-62
2022/08/04 11:17:25;;;;;;;9.93;1.80;;;;;;;;;;4991010;28;20042;-63
2022/08/04 11:20:01;;;;;;;8.00;2.25;;;;;;;;;;4990571;28;20197;-63
2022/08/04 11:22:27;;;;;;;6.45;1.88;;;;;;;;;;4991152;28;20052;-62
2022/08/04 11:24:59;;;;;;;9.55;1.90;;;;;;;;;;4990431;28;20070;-62
2022/08/04 11:27:28;;;;;;;6.78;2.10;;;;;;;;;;4972852;28;20073;-62
2022/08/04 11:29:54;;;;;;;8.48;2.40;;;;;;;;;;4991056;28;20050;-62
2022/08/04 11:32:26;;;;;;;10.20;2.33;;;;;;;;;;4990694;28;20651;-61
2022/08/04 11:34:55;;;;;;;6.30;1.98;;;;;;;;;;4990614;28;20053;-62
2022/08/04 11:37:35;;;;;;;6.75;1.90;;;;;;;;;;4973072;28;20035;-61
2022/08/04 11:40:06;;;;;;;5.75;1.80;;;;;;;;;;4970803;28;20041;-61
2022/08/04 11:42:40;;;;;;;5.80;1.90;;;;;;;;;;4970844;28;20537;-63
2022/08/04 11:45:07;;;;;;;6.70;1.60;;;;;;;;;;4982041;28;20047;-63
2022/08/04 11:47:42;;;;;;;4.80;1.75;;;;;;;;;;4981713;28;20062;-62
2022/08/04 11:50:14;;;;;;;2.13;1.23;;;;;;;;;;5009976;28;20053;-62
2022/08/04 11:52:42;;;;;;;4.78;1.58;;;;;;;;;;4999048;28;20363;-62
2022/08/04 11:55:10;;;;;;;7.05;1.70;;;;;;;;;;5010568;28;20038;-63
2022/08/04 11:57:36;;;;;;;4.70;1.60;;;;;;;;;;4990519;28;20042;-62
2022/08/04 12:00:04;;;;;;;3.33;1.70;;;;;;;;;;4990744;28;20041;-62
2022/08/04 12:02:49;;;;;;;3.42;1.30;;;;;;;;;;4990790;28;20078;-62
2022/08/04 12:05:17;;;;;;;5.25;1.50;;;;;;;;;;4989927;28;20074;-62
2022/08/04 12:08:02;;;;;;;3.60;1.40;;;;;;;;;;4990431;28;20073;-63
2022/08/04 12:10:51;;;;;;;7.70;1.38;;;;;;;;;;4990465;28;20069;-62
2022/08/04 12:13:24;;;;;;;3.45;1.45;;;;;;;;;;4964266;28;20132;-63
2022/08/04 12:16:10;;;;;;;4.63;1.60;;;;;;;;;;4989990;28;20042;-63
2022/08/04 12:18:38;;;;;;;3.95;1.27;;;;;;;;;;4990690;28;20141;-63
2022/08/04 12:21:07;;;;;;;5.63;1.65;;;;;;;;;;4990069;28;20074;-63
2022/08/04 12:23:36;;;;;;;6.38;1.45;;;;;;;;;;4990256;28;20608;-63
2022/08/04 12:26:04;;;;;;;5.70;1.10;;;;;;;;;;4990725;28;20460;-63
2022/08/04 12:28:39;;;;;;;3.70;1.40;;;;;;;;;;4989735;28;20042;-63
2022/08/04 12:31:12;;;;;;;2.88;1.33;;;;;;;;;;4990559;28;20069;-62
2022/08/04 12:33:49;;;;;;;3.67;1.42;;;;;;;;;;4989361;28;20038;-62
2022/08/04 12:36:18;;;;;;;5.25;1.33;;;;;;;;;;4990457;28;20497;-62
2022/08/04 12:38:59;;;;;;;4.13;1.10;;;;;;;;;;4990518;28;20117;-61
2022/08/04 12:41:27;;;;;;;6.88;1.60;;;;;;;;;;4989902;28;20060;-61
2022/08/04 12:43:54;;;;;;;3.03;1.30;;;;;;;;;;4990143;28;20074;-62
2022/08/04 12:46:23;;;;;;;5.25;1.20;;;;;;;;;;4990072;28;20063;-62
2022/08/04 12:48:49;;;;;;;4.05;1.25;;;;;;;;;;4989670;28;20097;-61
2022/08/04 12:51:17;;;;;;;3.88;1.15;;;;;;;;;;4973354;28;20805;-62
2022/08/04 12:53:43;;;;;;;2.22;1.20;;;;;;;;;;4994615;28;20392;-63
2022/08/04 12:56:10;;;;;;;3.05;1.42;;;;;;;;;;4993594;28;20042;-62
2022/08/04 12:58:47;;;;;;;2.78;1.25;;;;;;;;;;4993865;28;20137;-61
2022/08/04 13:01:19;;;;;;;3.30;1.02;;;;;;;;;;4993319;28;20045;-62
2022/08/04 13:03:47;;;;;;;3.97;1.23;;;;;;;;;;4993407;28;20046;-61
2022/08/04 13:06:14;;;;;;;5.35;1.10;;;;;;;;;;4993855;28;20462;-61
2022/08/04 13:08:41;;;;;;;2.33;1.20;;;;;;;;;;4993683;28;20057;-61
2022/08/04 13:11:08;;;;;;;3.53;1.30;;;;;;;;;;4993010;28;20043;-62
2022/08/04 13:13:36;;;;;;;1.92;1.02;;;;;;;;;;4975697;28;20034;-63
2022/08/04 13:16:07;;;;;;;3.50;1.23;;;;;;;;;;4993351;28;20501;-62
2022/08/04 13:18:35;;;;;;;4.85;1.17;;;;;;;;;;4992926;28;20034;-62
2022/08/04 13:21:20;;;;;;;3.08;1.20;;;;;;;;;;4993154;28;20568;-62
2022/08/04 13:23:47;;;;;;;5.57;1.80;;;;;;;;;;4993306;28;20501;-62
2022/08/04 13:26:14;;;;;;;2.88;1.27;;;;;;;;;;4992673;28;20493;-63
2022/08/04 13:28:41;;;;;;;2.80;1.00;;;;;;;;;;4992836;28;20039;-62
2022/08/04 13:31:10;;;;;;;3.83;1.10;;;;;;;;;;4993130;28;20117;-61
2022/08/04 13:33:37;;;;;;;4.15;1.10;;;;;;;;;;4992023;28;20046;-62
2022/08/04 13:36:04;;;;;;;3.35;1.20;;;;;;;;;;4992558;28;20042;-63
2022/08/04 13:38:31;;;;;;;4.32;1.20;;;;;;;;;;4992823;28;20089;-63
2022/08/04 13:40:58;;;;;;;2.15;1.20;;;;;;;;;;4992536;28;20587;-63
2022/08/04 13:43:26;;;;;;;3.85;1.00;;;;;;;;;;4993057;28;20064;-62
2022/08/04 13:45:58;;;;;;;1.50;1.02;;;;;;;;;;4991857;28;20732;-62
2022/08/04 13:48:25;;;;;;;3.08;1.10;;;;;;;;;;4991896;28;20401;-63
2022/08/04 13:50:52;;;;;;;3.17;1.10;;;;;;;;;;4991998;28;20046;-63
2022/08/04 13:53:18;;;;;;;2.42;1.00;;;;;;;;;;4991966;28;20047;-62
2022/08/04 13:55:45;;;;;;;3.63;1.08;;;;;;;;;;4992806;28;20125;-63
2022/08/04 13:58:21;;;;;;;3.28;1.20;;;;;;;;;;4992383;28;20046;-62
2022/08/04 14:00:48;;;;;;;3.45;1.38;;;;;;;;;;4992537;28;20084;-63
2022/08/04 14:03:20;;;;;;;4.15;1.15;;;;;;;;;;4991483;28;20162;-64
2022/08/04 14:06:04;;;;;;;2.63;1.20;;;;;;;;;;4975571;28;20046;-64
2022/08/04 14:08:32;;;;;;;3.67;1.30;;;;;;;;;;4992901;28;20678;-64
2022/08/04 14:10:58;;;;;;;4.00;1.15;;;;;;;;;;4992179;28;20042;-62
2022/08/04 14:13:31;;;;;;;2.85;1.25;;;;;;;;;;4992443;28;20050;-63
2022/08/04 14:15:57;;;;;;;5.65;1.13;;;;;;;;;;4992975;28;20389;-61
2022/08/04 14:18:28;;;;;;;2.90;1.17;;;;;;;;;;4992322;28;20666;-63
2022/08/04 14:20:58;;;;;;;1.77;0.80;;;;;;;;;;4992795;28;20038;-63
2022/08/04 14:23:25;;;;;;;4.35;1.40;;;;;;;;;;4992356;28;20055;-62
2022/08/04 14:25:51;;;;;;;3.90;1.55;;;;;;;;;;4992261;28;20105;-62
2022/08/04 14:28:30;;;;;;;2.42;1.00;;;;;;;;;;4992772;28;20065;-62
2022/08/04 14:31:26;;;;;;;2.17;1.05;;;;;;;;;;4992571;28;20046;-62
2022/08/04 14:33:53;;;;;;;2.30;1.00;;;;;;;;;;4975120;28;20063;-63
2022/08/04 14:36:19;;;;;;;4.80;1.05;;;;;;;;;;4992243;28;20053;-62
2022/08/04 14:38:51;;;;;;;4.00;0.90;;;;;;;;;;4992318;28;20039;-59
2022/08/04 14:41:19;;;;;;;4.05;1.10;;;;;;;;;;4991823;28;20354;-63
2022/08/04 14:43:47;;;;;;;2.72;0.70;;;;;;;;;;4992518;28;20465;-63
2022/08/04 14:46:13;;;;;;;2.97;1.02;;;;;;;;;;4992287;28;20124;-62
2022/08/04 14:48:40;;;;;;;1.85;0.85;;;;;;;;;;4991346;28;20093;-63
2022/08/04 14:51:13;;;;;;;2.72;0.70;;;;;;;;;;4992182;28;20043;-63
2022/08/04 14:53:39;;;;;;;2.50;0.98;;;;;;;;;;4991745;28;20043;-63
2022/08/04 14:56:06;;;;;;;4.28;0.85;;;;;;;;;;4991997;28;20039;-63
2022/08/04 14:58:33;;;;;;;10.68;1.40;;;;;;;;;;4991923;28;20045;-63
2022/08/04 15:01:01;;;;;;;1.95;0.63;;;;;;;;;;4991780;28;20117;-63
2022/08/04 15:03:30;;;;;;;4.43;1.00;;;;;;;;;;4991834;28;20080;-63
2022/08/04 15:05:58;;;;;;;4.25;0.70;;;;;;;;;;4974616;28;20039;-63
2022/08/04 15:08:25;;;;;;;3.53;0.68;;;;;;;;;;4992065;28;20082;-63